DNYO

Yola Airport

Yola, Nigeria
METAR DNYO 210900Z 28008KT 9999 SCT013 29/24 Q1014
Observed Flight Rules
Sep-21 @ 09:00 UTC (19 hours ago) Visual Flight Rules
Wind Visibility Clouds
280° at 8 knots 10,000+ meters
Temperatures Readings
Current 29°C / 84°F
Dewpoint 24°C / 75°F
Humidity 74%
Altimeter 29.94" Hg
Pressure 1014 hPa
Elevation 174
METAR DNYO 210900Z 28008KT 9999 SCT013 29/24 Q1014
Observed Flight Rules
Sep-21 @ 09:00 UTC
(19 hours ago)
VFR
Wind Visibility
280° at 8 knots 10,000+ meters
Clouds
Temperature Dewpoint
29°C / 84°F 24°C / 75°F
Humidity Altimeter Pressure
74% 29.94" Hg 1014 hPa